createdAt,value
2022-08-26T00:01:46.216Z,14.75
2022-08-26T00:04:12.946Z,13.38
2022-08-26T00:06:42.701Z,10.20
2022-08-26T00:09:16.732Z,8.98
2022-08-26T00:11:45.478Z,10.35
2022-08-26T00:14:13.910Z,9.93
2022-08-26T00:19:18.428Z,11.35
2022-08-26T00:21:46.195Z,12.20
2022-08-26T00:24:15.565Z,13.07
2022-08-26T00:26:42.146Z,10.68
2022-08-26T00:29:09.557Z,12.45
2022-08-26T00:31:37.211Z,10.97
2022-08-26T00:34:04.532Z,17.08
2022-08-26T00:36:31.919Z,11.52
2022-08-26T00:38:58.569Z,11.13
2022-08-26T00:41:25.119Z,11.95
2022-08-26T00:43:52.642Z,9.60
2022-08-26T00:46:24.122Z,12.50
2022-08-26T00:48:53.827Z,10.25
2022-08-26T00:51:29.544Z,13.15
2022-08-26T00:54:04.113Z,12.98
2022-08-26T00:56:37.968Z,11.55
2022-08-26T00:59:10.875Z,10.50
2022-08-26T01:01:39.559Z,14.57
2022-08-26T01:04:06.415Z,11.85
2022-08-26T01:06:32.886Z,11.85
2022-08-26T01:09:00.090Z,13.93
2022-08-26T01:11:27.582Z,15.38
2022-08-26T01:13:59.104Z,13.55
2022-08-26T01:16:26.005Z,14.75
2022-08-26T01:18:58.570Z,11.25
2022-08-26T01:21:40.533Z,11.65
2022-08-26T01:24:10.318Z,23.65
2022-08-26T01:26:42.986Z,9.80
2022-08-26T01:29:13.825Z,12.30
2022-08-26T01:31:44.822Z,12.45
2022-08-26T01:34:30.483Z,14.30
2022-08-26T01:37:21.441Z,11.82
2022-08-26T01:39:51.042Z,11.77
2022-08-26T01:42:21.454Z,10.20
2022-08-26T01:45:07.230Z,19.13
2022-08-26T01:47:36.644Z,10.80
2022-08-26T01:50:10.234Z,11.63
2022-08-26T01:52:41.386Z,10.43
2022-08-26T01:55:11.393Z,9.95
2022-08-26T01:57:38.037Z,16.10
2022-08-26T02:00:08.691Z,14.63
2022-08-26T02:02:35.372Z,15.98
2022-08-26T02:05:06.584Z,11.15
2022-08-26T02:07:33.954Z,14.32
2022-08-26T02:10:00.594Z,12.65
2022-08-26T02:12:27.559Z,9.77
2022-08-26T02:14:58.042Z,12.98
2022-08-26T02:17:37.188Z,14.43
2022-08-26T02:20:06.353Z,13.18
2022-08-26T02:22:41.284Z,11.35
2022-08-26T02:25:25.076Z,11.25
2022-08-26T02:27:52.373Z,12.57
2022-08-26T02:30:31.960Z,11.23
2022-08-26T02:32:59.905Z,15.77
2022-08-26T02:35:26.565Z,15.20
2022-08-26T02:37:53.246Z,13.38
2022-08-26T02:40:27.827Z,14.13
2022-08-26T02:42:56.919Z,10.27
2022-08-26T02:45:24.609Z,12.98
2022-08-26T02:47:52.393Z,14.52
2022-08-26T02:50:19.656Z,13.25
2022-08-26T02:52:46.448Z,11.52
2022-08-26T02:55:12.954Z,11.75
2022-08-26T02:57:39.576Z,12.70
2022-08-26T03:00:10.289Z,14.52
2022-08-26T03:02:36.943Z,11.75
2022-08-26T03:05:04.411Z,12.85
2022-08-26T03:07:30.948Z,18.70
2022-08-26T03:09:58.086Z,10.27
2022-08-26T03:12:25.704Z,14.30
2022-08-26T03:14:52.840Z,10.45
2022-08-26T03:17:19.388Z,15.43
2022-08-26T03:19:45.868Z,15.73
2022-08-26T03:22:12.396Z,11.80
2022-08-26T03:24:41.282Z,11.95
2022-08-26T03:27:12.766Z,13.65
2022-08-26T03:29:59.610Z,11.65
2022-08-26T03:32:27.097Z,15.70
2022-08-26T03:34:54.234Z,17.17
2022-08-26T03:37:21.641Z,12.90
2022-08-26T03:39:49.416Z,17.25
2022-08-26T03:42:16.141Z,14.65
2022-08-26T03:44:42.838Z,17.08
2022-08-26T03:47:10.615Z,19.05
2022-08-26T03:49:37.456Z,18.60
2022-08-26T03:52:04.793Z,18.00
2022-08-26T03:54:32.910Z,18.15
2022-08-26T03:56:59.560Z,20.05
2022-08-26T03:59:26.781Z,19.35
2022-08-26T04:01:54.705Z,22.73
2022-08-26T04:04:22.584Z,21.88
2022-08-26T04:06:50.213Z,27.15
2022-08-26T04:09:20.887Z,24.55
2022-08-26T04:11:50.536Z,21.58
2022-08-26T04:14:21.015Z,17.63
2022-08-26T04:16:48.774Z,17.30
2022-08-26T04:19:16.617Z,17.20
2022-08-26T04:21:45.042Z,23.52
2022-08-26T04:24:15.563Z,18.70
2022-08-26T04:26:43.726Z,18.60
2022-08-26T04:29:25.349Z,26.85
2022-08-26T04:31:55.315Z,23.48
2022-08-26T04:34:28.728Z,21.60
2022-08-26T04:36:56.167Z,24.13
2022-08-26T04:39:22.703Z,21.80
2022-08-26T04:41:50.754Z,23.42
2022-08-26T04:44:17.975Z,21.65
2022-08-26T04:46:44.630Z,24.02
2022-08-26T04:49:11.595Z,25.23
2022-08-26T04:51:39.051Z,31.20
2022-08-26T04:54:07.202Z,31.00
2022-08-26T04:56:38.663Z,27.65
2022-08-26T04:59:15.010Z,31.55
2022-08-26T05:01:51.306Z,32.97
2022-08-26T05:04:20.041Z,39.45
2022-08-26T05:06:50.412Z,32.45
2022-08-26T05:09:18.599Z,32.55
2022-08-26T05:11:51.897Z,41.05
2022-08-26T05:14:20.695Z,40.58
2022-08-26T05:16:47.791Z,43.65
2022-08-26T05:21:47.171Z,42.58
2022-08-26T05:24:14.550Z,51.38
2022-08-26T05:26:41.390Z,50.72
2022-08-26T05:29:08.063Z,47.88
2022-08-26T05:31:35.478Z,52.60
2022-08-26T05:34:04.592Z,53.72
2022-08-26T05:36:33.484Z,56.85
2022-08-26T05:39:01.355Z,55.83
2022-08-26T05:41:34.477Z,52.00
2022-08-26T05:44:06.325Z,56.13
2022-08-26T05:46:34.570Z,71.45
2022-08-26T05:49:01.211Z,59.58
2022-08-26T05:51:29.237Z,67.78
2022-08-26T05:53:58.233Z,81.32
2022-08-26T05:56:27.350Z,70.75
2022-08-26T05:58:55.688Z,75.78
2022-08-26T06:01:26.121Z,73.43
2022-08-26T06:03:57.562Z,72.97
2022-08-26T06:06:29.355Z,75.10
2022-08-26T06:08:59.391Z,78.03
2022-08-26T06:11:27.559Z,80.03
2022-08-26T06:13:57.111Z,84.47
2022-08-26T06:16:27.152Z,83.43
2022-08-26T06:18:54.123Z,85.18
2022-08-26T06:21:26.685Z,76.80
2022-08-26T06:24:14.622Z,82.68
2022-08-26T06:26:43.234Z,80.28
2022-08-26T06:29:13.228Z,84.00
2022-08-26T06:31:50.266Z,80.25
2022-08-26T06:34:18.158Z,81.28
2022-08-26T06:36:45.046Z,81.55
2022-08-26T06:39:14.403Z,82.10
2022-08-26T06:41:45.048Z,71.05
2022-08-26T06:44:14.579Z,80.57
2022-08-26T06:46:43.114Z,77.55
2022-08-26T06:49:12.913Z,88.65
2022-08-26T06:54:07.114Z,85.10
2022-08-26T06:56:36.355Z,93.68
2022-08-26T06:59:04.083Z,86.32
2022-08-26T07:01:37.932Z,85.88
2022-08-26T07:04:07.930Z,82.28
2022-08-26T07:06:40.458Z,87.53
2022-08-26T07:09:09.866Z,81.68
2022-08-26T07:11:38.820Z,85.88
2022-08-26T07:14:06.571Z,84.78
2022-08-26T07:16:33.944Z,90.38
2022-08-26T07:19:03.643Z,91.07
2022-08-26T07:21:40.400Z,83.75
2022-08-26T07:24:07.703Z,77.95
2022-08-26T07:26:34.627Z,86.28
2022-08-26T07:29:01.772Z,78.78
2022-08-26T07:31:34.758Z,85.10
2022-08-26T07:34:07.608Z,91.77
2022-08-26T07:36:34.564Z,92.38
2022-08-26T07:39:01.195Z,91.60
2022-08-26T07:43:59.467Z,92.10
2022-08-26T07:46:26.969Z,94.22
2022-08-26T07:48:54.348Z,97.13
2022-08-26T07:51:21.978Z,96.72
2022-08-26T07:53:52.418Z,102.67
2022-08-26T07:56:19.992Z,93.63
2022-08-26T07:58:51.298Z,95.55
2022-08-26T08:01:18.074Z,92.20
2022-08-26T08:03:45.400Z,100.88
2022-08-26T08:06:12.252Z,102.70
2022-08-26T08:08:41.337Z,101.95
2022-08-26T08:11:07.901Z,88.90
2022-08-26T08:13:37.420Z,89.78
2022-08-26T08:16:04.973Z,87.93
2022-08-26T08:18:31.763Z,87.00
2022-08-26T08:21:20.976Z,94.35
2022-08-26T08:23:47.089Z,101.93
2022-08-26T08:26:14.123Z,100.10
2022-08-26T08:28:40.986Z,100.40
2022-08-26T08:31:08.255Z,102.45
2022-08-26T08:33:35.298Z,97.07
2022-08-26T08:36:02.020Z,90.85
2022-08-26T08:38:29.613Z,92.07
2022-08-26T08:40:56.142Z,103.23
2022-08-26T08:43:44.036Z,91.38
2022-08-26T08:46:14.087Z,89.93
2022-08-26T08:48:48.506Z,81.32
2022-08-26T08:51:31.702Z,78.15
2022-08-26T08:54:00.596Z,84.80
2022-08-26T08:56:29.485Z,82.18
2022-08-26T08:58:59.033Z,76.53
2022-08-26T09:01:30.705Z,66.22
2022-08-26T09:04:39.468Z,60.47
2022-08-26T09:07:13.234Z,52.17
2022-08-26T09:09:46.050Z,57.08
2022-08-26T09:12:29.229Z,57.10
2022-08-26T09:15:18.535Z,62.00
2022-08-26T09:17:57.397Z,63.80
2022-08-26T09:20:55.314Z,67.38
2022-08-26T09:23:22.055Z,61.83
2022-08-26T09:25:55.650Z,62.80
2022-08-26T09:28:25.154Z,60.13
2022-08-26T09:31:14.120Z,62.95
2022-08-26T09:33:41.587Z,53.47
2022-08-26T09:36:26.268Z,51.28
2022-08-26T09:38:54.079Z,44.85
2022-08-26T09:41:35.551Z,59.23
2022-08-26T09:44:22.069Z,48.95
2022-08-26T09:46:59.720Z,47.30
2022-08-26T09:49:26.880Z,47.38
2022-08-26T09:52:15.304Z,61.83
2022-08-26T09:54:46.030Z,49.88
2022-08-26T09:57:27.100Z,51.03
2022-08-26T09:59:55.939Z,49.13
2022-08-26T10:02:31.835Z,46.38
2022-08-26T10:05:09.213Z,45.60
2022-08-26T10:07:44.629Z,45.58
2022-08-26T10:10:37.123Z,42.58
2022-08-26T10:13:14.308Z,35.97
2022-08-26T10:15:57.090Z,37.30
2022-08-26T10:18:37.049Z,35.53
2022-08-26T10:21:10.799Z,32.50
2022-08-26T10:23:43.045Z,37.45
2022-08-26T10:26:30.647Z,34.35
2022-08-26T10:29:06.827Z,40.13
2022-08-26T10:31:40.305Z,44.15
2022-08-26T10:34:08.468Z,32.83
2022-08-26T10:37:14.819Z,40.08
2022-08-26T10:39:58.790Z,30.08
2022-08-26T10:42:53.745Z,37.55
2022-08-26T10:45:25.689Z,39.08
2022-08-26T10:48:01.236Z,34.60
2022-08-26T10:50:35.971Z,35.78
2022-08-26T10:53:32.703Z,38.67
2022-08-26T10:56:15.703Z,36.65
2022-08-26T10:59:03.762Z,27.52
2022-08-26T11:01:47.024Z,32.00
2022-08-26T11:04:23.094Z,33.50
2022-08-26T11:07:32.639Z,38.75
2022-08-26T11:10:18.791Z,26.25
2022-08-26T11:12:49.192Z,24.35
2022-08-26T11:15:24.587Z,37.88
2022-08-26T11:17:51.439Z,32.22
2022-08-26T11:20:29.872Z,31.00
2022-08-26T11:23:17.047Z,31.20
2022-08-26T11:26:01.936Z,31.70
2022-08-26T11:28:35.546Z,32.15
2022-08-26T11:31:04.560Z,23.13
2022-08-26T11:33:59.485Z,31.23
2022-08-26T11:36:38.646Z,27.00
2022-08-26T11:39:31.728Z,27.05
2022-08-26T11:42:28.402Z,27.55
2022-08-26T11:44:57.917Z,31.15
2022-08-26T11:47:31.131Z,29.17
2022-08-26T11:50:23.581Z,25.33
2022-08-26T11:52:51.802Z,28.92
2022-08-26T11:55:19.216Z,28.17
2022-08-26T11:57:49.365Z,29.23
2022-08-26T12:00:25.126Z,31.67
2022-08-26T12:02:52.791Z,25.92
2022-08-26T12:08:07.316Z,25.40
2022-08-26T12:10:35.370Z,30.85
2022-08-26T12:13:04.220Z,30.40
2022-08-26T12:15:33.658Z,27.08
2022-08-26T12:18:20.661Z,27.83
2022-08-26T12:20:56.295Z,27.38
2022-08-26T12:23:45.955Z,28.33
2022-08-26T12:26:31.075Z,26.35
2022-08-26T12:29:02.291Z,37.08
2022-08-26T12:31:44.287Z,32.42
2022-08-26T12:34:17.930Z,29.83
2022-08-26T12:36:49.043Z,27.17
2022-08-26T12:39:33.119Z,23.08
2022-08-26T12:42:21.164Z,28.45
2022-08-26T12:44:52.986Z,31.77
2022-08-26T12:47:44.160Z,34.47
2022-08-26T12:50:32.589Z,26.63
2022-08-26T12:55:45.388Z,36.67
2022-08-26T12:58:32.140Z,31.38
2022-08-26T13:01:22.206Z,29.30
2022-08-26T13:03:49.539Z,29.20
2022-08-26T13:06:29.628Z,29.33
2022-08-26T13:09:25.637Z,28.27
2022-08-26T13:11:54.922Z,23.48
2022-08-26T13:14:24.793Z,24.25
2022-08-26T13:16:52.956Z,21.17
2022-08-26T13:19:22.262Z,23.05
2022-08-26T13:22:00.304Z,23.83
2022-08-26T13:24:39.710Z,26.23
2022-08-26T13:27:08.616Z,22.35
2022-08-26T13:29:35.311Z,21.80
2022-08-26T13:32:03.450Z,22.58
2022-08-26T13:34:30.066Z,19.73
2022-08-26T13:36:57.876Z,38.83
2022-08-26T13:39:25.406Z,20.40
2022-08-26T13:41:52.706Z,18.83
2022-08-26T13:44:19.736Z,20.73
2022-08-26T13:46:46.458Z,21.65
2022-08-26T13:49:13.544Z,26.45
2022-08-26T13:51:41.693Z,19.50
2022-08-26T13:54:08.835Z,19.90
2022-08-26T13:56:36.078Z,17.17
2022-08-26T13:59:03.092Z,21.90
2022-08-26T14:01:31.087Z,18.27
2022-08-26T14:03:58.092Z,15.55
2022-08-26T14:06:25.188Z,14.05
2022-08-26T14:08:51.969Z,13.15
2022-08-26T14:11:18.755Z,21.08
2022-08-26T14:13:45.544Z,15.32
2022-08-26T14:16:19.203Z,13.27
2022-08-26T14:18:50.497Z,12.95
2022-08-26T14:21:18.205Z,15.70
2022-08-26T14:23:44.771Z,11.70
2022-08-26T14:26:14.333Z,15.52
2022-08-26T14:28:55.471Z,16.63
2022-08-26T14:31:23.752Z,15.75
2022-08-26T14:36:29.047Z,10.38
2022-08-26T14:38:57.103Z,16.98
2022-08-26T14:41:28.091Z,12.70
2022-08-26T14:44:00.234Z,9.50
2022-08-26T14:46:30.159Z,17.85
2022-08-26T14:49:02.015Z,17.02
2022-08-26T14:51:29.079Z,13.90
2022-08-26T14:54:13.617Z,13.05
2022-08-26T14:56:51.939Z,13.65
2022-08-26T15:01:47.986Z,12.70
2022-08-26T15:04:15.587Z,10.93
2022-08-26T15:06:42.407Z,12.80
2022-08-26T15:09:09.142Z,12.10
2022-08-26T15:11:35.677Z,11.38
2022-08-26T15:14:02.600Z,12.85
2022-08-26T15:16:29.556Z,11.13
2022-08-26T15:18:56.731Z,10.93
2022-08-26T15:21:24.446Z,14.43
2022-08-26T15:23:52.394Z,13.77
2022-08-26T15:26:19.494Z,11.82
2022-08-26T15:28:46.467Z,14.18
2022-08-26T15:31:13.031Z,14.27
2022-08-26T15:33:40.336Z,11.70
2022-08-26T15:36:08.005Z,9.55
2022-08-26T15:38:38.323Z,14.15
2022-08-26T15:41:06.434Z,14.18
2022-08-26T15:43:33.037Z,10.27
2022-08-26T15:45:59.670Z,10.70
2022-08-26T15:48:26.724Z,15.40
2022-08-26T15:51:02.244Z,14.73
2022-08-26T15:53:31.311Z,14.45
2022-08-26T15:55:59.609Z,11.95
2022-08-26T16:00:55.109Z,12.68
2022-08-26T16:03:22.500Z,12.40
2022-08-26T16:05:50.174Z,11.73
2022-08-26T16:08:17.649Z,9.32
2022-08-26T16:10:50.370Z,8.90
2022-08-26T16:13:19.932Z,12.10
2022-08-26T16:15:47.692Z,11.68
2022-08-26T16:18:15.425Z,11.30
2022-08-26T16:21:12.920Z,14.95
2022-08-26T16:23:40.456Z,9.05
2022-08-26T16:26:12.092Z,8.63
2022-08-26T16:28:38.972Z,11.02
2022-08-26T16:31:06.406Z,14.25
2022-08-26T16:33:33.134Z,15.50
2022-08-26T16:35:59.717Z,13.25
2022-08-26T16:38:26.316Z,14.95
2022-08-26T16:40:52.838Z,17.85
2022-08-26T16:43:19.424Z,14.45
2022-08-26T16:45:45.933Z,14.18
2022-08-26T16:48:12.726Z,9.60
2022-08-26T16:50:40.755Z,9.52
2022-08-26T16:53:07.960Z,8.48
2022-08-26T16:55:34.766Z,11.70
2022-08-26T16:58:01.508Z,9.98
2022-08-26T17:00:31.144Z,9.40
2022-08-26T17:02:59.761Z,14.25
2022-08-26T17:05:27.665Z,11.50
2022-08-26T17:07:55.773Z,11.77
2022-08-26T17:10:23.700Z,13.63
2022-08-26T17:12:50.839Z,12.43
2022-08-26T17:15:18.481Z,10.73
2022-08-26T17:17:45.009Z,12.83
2022-08-26T17:20:14.270Z,11.80
2022-08-26T17:22:44.645Z,6.68
2022-08-26T17:25:21.179Z,11.82
2022-08-26T17:27:48.434Z,10.55
2022-08-26T17:30:16.546Z,6.70
2022-08-26T17:32:43.982Z,7.53
2022-08-26T17:35:12.961Z,10.18
2022-08-26T17:37:39.752Z,11.25
2022-08-26T17:40:09.390Z,14.80
2022-08-26T17:42:38.285Z,14.02
2022-08-26T17:45:06.014Z,13.73
2022-08-26T17:47:33.953Z,11.40
2022-08-26T17:50:01.362Z,16.55
2022-08-26T17:52:28.541Z,15.55
2022-08-26T17:54:58.378Z,14.10
2022-08-26T17:57:25.863Z,16.65
2022-08-26T17:59:53.996Z,8.82
2022-08-26T18:02:22.865Z,7.93
2022-08-26T18:04:49.666Z,12.35
2022-08-26T18:07:17.357Z,14.65
2022-08-26T18:09:44.476Z,12.52
2022-08-26T18:12:11.901Z,11.93
2022-08-26T18:14:38.608Z,11.70
2022-08-26T18:17:05.220Z,9.57
2022-08-26T18:19:31.791Z,18.30
2022-08-26T18:21:58.398Z,10.57
2022-08-26T18:24:24.972Z,13.43
2022-08-26T18:26:51.550Z,13.25
2022-08-26T18:29:20.018Z,7.88
2022-08-26T18:34:15.391Z,8.85
2022-08-26T18:36:43.025Z,12.25
2022-08-26T18:39:11.443Z,8.80
2022-08-26T18:44:15.024Z,10.40
2022-08-26T18:46:42.259Z,10.65
2022-08-26T18:49:11.271Z,14.77
2022-08-26T18:51:38.064Z,10.30
2022-08-26T18:54:06.753Z,9.35
2022-08-26T18:56:35.590Z,9.30
2022-08-26T18:59:06.338Z,11.27
2022-08-26T19:01:34.350Z,8.10
2022-08-26T19:04:03.740Z,7.63
2022-08-26T19:06:32.931Z,8.45
2022-08-26T19:09:00.165Z,9.27
2022-08-26T19:11:32.676Z,7.80
2022-08-26T19:14:09.349Z,11.75
2022-08-26T19:16:37.459Z,11.23
2022-08-26T19:19:04.348Z,7.47
2022-08-26T19:21:33.145Z,10.65
2022-08-26T19:24:02.520Z,6.18
2022-08-26T19:26:30.799Z,4.75
2022-08-26T19:28:58.434Z,8.93
2022-08-26T19:31:25.321Z,9.88
2022-08-26T19:33:51.912Z,6.00
2022-08-26T19:36:25.433Z,9.27
2022-08-26T19:38:53.162Z,11.05
2022-08-26T19:41:26.551Z,7.07
2022-08-26T19:43:58.906Z,8.65
2022-08-26T19:46:26.560Z,8.85
2022-08-26T19:48:55.704Z,6.22
2022-08-26T19:51:26.815Z,11.77
2022-08-26T19:53:55.552Z,8.88
2022-08-26T19:56:22.963Z,10.25
2022-08-26T19:58:50.586Z,4.95
2022-08-26T20:01:18.958Z,7.87
2022-08-26T20:06:15.108Z,8.93
2022-08-26T20:08:42.915Z,9.35
2022-08-26T20:11:14.816Z,9.18
2022-08-26T20:13:41.766Z,9.55
2022-08-26T20:16:10.282Z,8.43
2022-08-26T20:18:55.476Z,10.43
2022-08-26T20:21:29.141Z,9.95
2022-08-26T20:24:14.427Z,11.05
2022-08-26T20:26:42.790Z,6.85
2022-08-26T20:29:11.611Z,9.43
2022-08-26T20:31:38.367Z,9.43
2022-08-26T20:34:05.505Z,11.75
2022-08-26T20:36:33.027Z,10.48
2022-08-26T20:38:59.699Z,9.52
2022-08-26T20:41:26.536Z,8.30
2022-08-26T20:43:53.866Z,6.03
2022-08-26T20:46:24.512Z,10.65
2022-08-26T20:48:52.690Z,11.93
2022-08-26T20:51:19.755Z,9.23
2022-08-26T20:53:46.735Z,9.18
2022-08-26T20:56:15.184Z,8.52
2022-08-26T21:01:09.033Z,11.38
2022-08-26T21:06:03.935Z,8.30
2022-08-26T21:08:30.801Z,11.63
2022-08-26T21:14:03.894Z,8.38
2022-08-26T21:16:31.526Z,8.57
2022-08-26T21:19:00.345Z,9.95
2022-08-26T21:21:27.596Z,7.85
2022-08-26T21:23:54.881Z,6.43
2022-08-26T21:26:21.820Z,8.68
2022-08-26T21:28:49.217Z,13.40
2022-08-26T21:31:19.590Z,9.52
2022-08-26T21:33:46.766Z,9.43
2022-08-26T21:36:14.768Z,10.10
2022-08-26T21:38:41.835Z,6.28
2022-08-26T21:41:14.058Z,10.73
2022-08-26T21:43:41.910Z,14.32
2022-08-26T21:46:14.765Z,7.53
2022-08-26T21:48:47.617Z,6.90
2022-08-26T21:51:18.400Z,14.75
2022-08-26T21:53:45.002Z,9.32
2022-08-26T21:56:15.108Z,10.93
2022-08-26T21:58:41.953Z,11.68
2022-08-26T22:01:10.622Z,8.65
2022-08-26T22:03:47.243Z,6.10
2022-08-26T22:06:18.056Z,8.93
2022-08-26T22:08:44.603Z,12.15
2022-08-26T22:11:11.870Z,11.13
2022-08-26T22:13:41.850Z,8.02
2022-08-26T22:16:51.069Z,9.57
2022-08-26T22:19:18.243Z,9.75
2022-08-26T22:21:45.271Z,8.13
2022-08-26T22:24:12.442Z,9.10
2022-08-26T22:26:39.025Z,9.50
2022-08-26T22:29:07.445Z,11.38
2022-08-26T22:31:38.227Z,10.43
2022-08-26T22:34:11.122Z,5.68
2022-08-26T22:36:43.665Z,6.88
2022-08-26T22:39:12.664Z,7.70
2022-08-26T22:41:40.090Z,9.07
2022-08-26T22:44:06.619Z,7.63
2022-08-26T22:46:34.814Z,10.48
2022-08-26T22:49:01.386Z,5.15
2022-08-26T22:51:28.185Z,7.93
2022-08-26T22:53:54.700Z,12.45
2022-08-26T22:56:22.140Z,11.60
2022-08-26T22:58:48.855Z,14.20
2022-08-26T23:01:16.941Z,9.10
2022-08-26T23:03:45.196Z,6.07
2022-08-26T23:06:11.815Z,5.20
2022-08-26T23:08:39.521Z,5.80
2022-08-26T23:11:12.418Z,4.25
2022-08-26T23:13:39.265Z,6.25
2022-08-26T23:16:09.227Z,4.68
2022-08-26T23:18:36.352Z,2.88
2022-08-26T23:21:02.980Z,4.25
2022-08-26T23:23:29.495Z,3.53
2022-08-26T23:25:56.048Z,5.93
2022-08-26T23:28:22.913Z,3.83
2022-08-26T23:30:50.192Z,3.78
2022-08-26T23:33:16.780Z,4.07
2022-08-26T23:35:43.276Z,5.22
2022-08-26T23:38:10.115Z,5.53
2022-08-26T23:40:40.494Z,5.07
2022-08-26T23:43:09.516Z,4.93
2022-08-26T23:45:36.182Z,4.72
2022-08-26T23:48:03.519Z,7.80
2022-08-26T23:50:49.737Z,4.18
2022-08-26T23:53:21.010Z,5.68
2022-08-26T23:55:50.068Z,3.30
2022-08-26T23:58:18.221Z,5.38
